sensor_id;sensor_type;location;lat;lon;timestamp;pressure;altitude;pressure_sealevel;temperature
10598;BMP180;5346;48.766;8.674;2023-04-15T00:00:11;93038.00;;;2.40
10598;BMP180;5346;48.766;8.674;2023-04-15T00:02:45;93089.00;;;2.40
10598;BMP180;5346;48.766;8.674;2023-04-15T00:05:12;93057.00;;;2.30
10598;BMP180;5346;48.766;8.674;2023-04-15T00:07:46;93104.00;;;2.30
10598;BMP180;5346;48.766;8.674;2023-04-15T00:10:20;93081.00;;;2.30
10598;BMP180;5346;48.766;8.674;2023-04-15T00:13:07;93046.00;;;2.20
10598;BMP180;5346;48.766;8.674;2023-04-15T00:15:42;93076.00;;;2.20
10598;BMP180;5346;48.766;8.674;2023-04-15T00:18:16;93059.00;;;2.30
10598;BMP180;5346;48.766;8.674;2023-04-15T00:20:50;93084.00;;;2.30
10598;BMP180;5346;48.766;8.674;2023-04-15T00:23:18;93045.00;;;2.30
10598;BMP180;5346;48.766;8.674;2023-04-15T00:25:53;93057.00;;;2.30
10598;BMP180;5346;48.766;8.674;2023-04-15T00:28:21;93032.00;;;2.40
10598;BMP180;5346;48.766;8.674;2023-04-15T00:30:55;93101.00;;;2.40
10598;BMP180;5346;48.766;8.674;2023-04-15T00:33:22;93047.00;;;2.40
10598;BMP180;5346;48.766;8.674;2023-04-15T00:35:56;93058.00;;;2.40
10598;BMP180;5346;48.766;8.674;2023-04-15T00:38:23;93064.00;;;2.40
10598;BMP180;5346;48.766;8.674;2023-04-15T00:40:57;93061.00;;;2.30
10598;BMP180;5346;48.766;8.674;2023-04-15T00:43:31;93017.00;;;2.20
10598;BMP180;5346;48.766;8.674;2023-04-15T00:46:05;93079.00;;;2.30
10598;BMP180;5346;48.766;8.674;2023-04-15T00:48:40;93019.00;;;2.30
10598;BMP180;5346;48.766;8.674;2023-04-15T00:51:15;93045.00;;;2.30
10598;BMP180;5346;48.766;8.674;2023-04-15T00:53:42;93036.00;;;2.20
10598;BMP180;5346;48.766;8.674;2023-04-15T00:56:16;93070.00;;;2.30
10598;BMP180;5346;48.766;8.674;2023-04-15T00:58:44;93048.00;;;2.30
10598;BMP180;5346;48.766;8.674;2023-04-15T01:01:21;93072.00;;;2.30
10598;BMP180;5346;48.766;8.674;2023-04-15T01:03:56;92902.00;;;2.30
10598;BMP180;5346;48.766;8.674;2023-04-15T01:06:37;92894.00;;;2.20
10598;BMP180;5346;48.766;8.674;2023-04-15T01:09:06;92936.00;;;2.30
10598;BMP180;5346;48.766;8.674;2023-04-15T01:11:39;92888.00;;;2.40
10598;BMP180;5346;48.766;8.674;2023-04-15T01:14:13;92999.00;;;2.40
10598;BMP180;5346;48.766;8.674;2023-04-15T01:16:47;92972.00;;;2.40
10598;BMP180;5346;48.766;8.674;2023-04-15T01:19:16;92978.00;;;2.40
10598;BMP180;5346;48.766;8.674;2023-04-15T01:21:51;92837.00;;;2.50
10598;BMP180;5346;48.766;8.674;2023-04-15T01:24:18;92849.00;;;2.50
10598;BMP180;5346;48.766;8.674;2023-04-15T01:26:52;92814.00;;;2.50
10598;BMP180;5346;48.766;8.674;2023-04-15T01:29:20;93028.00;;;2.50
10598;BMP180;5346;48.766;8.674;2023-04-15T01:31:58;92894.00;;;2.50
10598;BMP180;5346;48.766;8.674;2023-04-15T01:34:32;92904.00;;;2.60
10598;BMP180;5346;48.766;8.674;2023-04-15T01:37:07;92809.00;;;2.60
10598;BMP180;5346;48.766;8.674;2023-04-15T01:39:36;92875.00;;;2.70
10598;BMP180;5346;48.766;8.674;2023-04-15T01:42:13;92817.00;;;2.70
10598;BMP180;5346;48.766;8.674;2023-04-15T01:44:41;93051.00;;;2.70
10598;BMP180;5346;48.766;8.674;2023-04-15T01:47:15;92877.00;;;2.80
10598;BMP180;5346;48.766;8.674;2023-04-15T01:49:49;93018.00;;;2.50
10598;BMP180;5346;48.766;8.674;2023-04-15T01:52:23;92959.00;;;2.40
10598;BMP180;5346;48.766;8.674;2023-04-15T01:54:57;92852.00;;;2.50
10598;BMP180;5346;48.766;8.674;2023-04-15T01:57:31;92898.00;;;2.40
10598;BMP180;5346;48.766;8.674;2023-04-15T02:00:07;93046.00;;;2.50
10598;BMP180;5346;48.766;8.674;2023-04-15T02:02:43;93050.00;;;2.40
10598;BMP180;5346;48.766;8.674;2023-04-15T02:05:17;93018.00;;;2.60
10598;BMP180;5346;48.766;8.674;2023-04-15T02:07:51;93030.00;;;2.50
10598;BMP180;5346;48.766;8.674;2023-04-15T02:10:18;93032.00;;;2.50
10598;BMP180;5346;48.766;8.674;2023-04-15T02:12:52;93020.00;;;2.60
10598;BMP180;5346;48.766;8.674;2023-04-15T02:15:20;93031.00;;;2.50
10598;BMP180;5346;48.766;8.674;2023-04-15T02:17:54;93045.00;;;2.50
10598;BMP180;5346;48.766;8.674;2023-04-15T02:20:28;93025.00;;;2.50
10598;BMP180;5346;48.766;8.674;2023-04-15T02:22:58;93021.00;;;2.50
10598;BMP180;5346;48.766;8.674;2023-04-15T02:25:32;93048.00;;;2.20
10598;BMP180;5346;48.766;8.674;2023-04-15T02:27:59;93051.00;;;2.40
10598;BMP180;5346;48.766;8.674;2023-04-15T02:30:33;93029.00;;;2.40
10598;BMP180;5346;48.766;8.674;2023-04-15T02:33:00;93048.00;;;2.40
10598;BMP180;5346;48.766;8.674;2023-04-15T02:35:34;93044.00;;;2.40
10598;BMP180;5346;48.766;8.674;2023-04-15T02:38:09;93009.00;;;2.40
10598;BMP180;5346;48.766;8.674;2023-04-15T02:40:37;93040.00;;;2.30
10598;BMP180;5346;48.766;8.674;2023-04-15T02:43:11;93049.00;;;2.30
10598;BMP180;5346;48.766;8.674;2023-04-15T02:45:38;93029.00;;;2.40
10598;BMP180;5346;48.766;8.674;2023-04-15T02:48:12;93044.00;;;2.30
10598;BMP180;5346;48.766;8.674;2023-04-15T02:50:46;93052.00;;;2.30
10598;BMP180;5346;48.766;8.674;2023-04-15T02:53:20;93047.00;;;2.30
10598;BMP180;5346;48.766;8.674;2023-04-15T02:55:47;93025.00;;;2.30
10598;BMP180;5346;48.766;8.674;2023-04-15T02:58:21;93013.00;;;2.20
10598;BMP180;5346;48.766;8.674;2023-04-15T03:01:01;93026.00;;;2.20
10598;BMP180;5346;48.766;8.674;2023-04-15T03:03:35;93034.00;;;2.40
10598;BMP180;5346;48.766;8.674;2023-04-15T03:06:09;93057.00;;;2.20
10598;BMP180;5346;48.766;8.674;2023-04-15T03:08:43;93035.00;;;2.10
10598;BMP180;5346;48.766;8.674;2023-04-15T03:11:18;93048.00;;;2.20
10598;BMP180;5346;48.766;8.674;2023-04-15T03:13:52;93055.00;;;2.20
10598;BMP180;5346;48.766;8.674;2023-04-15T03:16:19;93031.00;;;2.20
10598;BMP180;5346;48.766;8.674;2023-04-15T03:18:53;93051.00;;;2.10
10598;BMP180;5346;48.766;8.674;2023-04-15T03:21:27;93056.00;;;2.10
10598;BMP180;5346;48.766;8.674;2023-04-15T03:24:01;93050.00;;;2.10
10598;BMP180;5346;48.766;8.674;2023-04-15T03:26:29;93033.00;;;2.00
10598;BMP180;5346;48.766;8.674;2023-04-15T03:29:04;93046.00;;;2.10
10598;BMP180;5346;48.766;8.674;2023-04-15T03:31:31;93055.00;;;2.00
10598;BMP180;5346;48.766;8.674;2023-04-15T03:34:05;93044.00;;;2.10
10598;BMP180;5346;48.766;8.674;2023-04-15T03:36:32;93003.00;;;2.00
10598;BMP180;5346;48.766;8.674;2023-04-15T03:39:06;93021.00;;;2.10
10598;BMP180;5346;48.766;8.674;2023-04-15T03:41:33;93040.00;;;2.10
10598;BMP180;5346;48.766;8.674;2023-04-15T03:44:07;93017.00;;;2.10
10598;BMP180;5346;48.766;8.674;2023-04-15T03:46:41;93044.00;;;2.20
10598;BMP180;5346;48.766;8.674;2023-04-15T03:49:08;93050.00;;;2.00
10598;BMP180;5346;48.766;8.674;2023-04-15T03:51:42;93042.00;;;2.10
10598;BMP180;5346;48.766;8.674;2023-04-15T03:54:16;93045.00;;;1.90
10598;BMP180;5346;48.766;8.674;2023-04-15T03:56:50;93048.00;;;2.10
10598;BMP180;5346;48.766;8.674;2023-04-15T03:59:24;93037.00;;;2.10
10598;BMP180;5346;48.766;8.674;2023-04-15T04:02:05;93047.00;;;2.20
10598;BMP180;5346;48.766;8.674;2023-04-15T04:04:39;93015.00;;;2.20
10598;BMP180;5346;48.766;8.674;2023-04-15T04:07:17;93039.00;;;2.40
10598;BMP180;5346;48.766;8.674;2023-04-15T04:09:44;93036.00;;;2.50
10598;BMP180;5346;48.766;8.674;2023-04-15T04:12:13;93014.00;;;2.50
10598;BMP180;5346;48.766;8.674;2023-04-15T04:14:47;93003.00;;;2.40
10598;BMP180;5346;48.766;8.674;2023-04-15T04:17:14;93021.00;;;2.30
10598;BMP180;5346;48.766;8.674;2023-04-15T04:19:48;93030.00;;;2.20
10598;BMP180;5346;48.766;8.674;2023-04-15T04:22:22;93032.00;;;2.30
10598;BMP180;5346;48.766;8.674;2023-04-15T04:24:57;93038.00;;;2.10
10598;BMP180;5346;48.766;8.674;2023-04-15T04:27:25;93018.00;;;2.20
10598;BMP180;5346;48.766;8.674;2023-04-15T04:29:59;93043.00;;;2.30
10598;BMP180;5346;48.766;8.674;2023-04-15T04:32:26;93040.00;;;2.40
10598;BMP180;5346;48.766;8.674;2023-04-15T04:35:00;93039.00;;;2.70
10598;BMP180;5346;48.766;8.674;2023-04-15T04:37:34;93031.00;;;2.60
10598;BMP180;5346;48.766;8.674;2023-04-15T04:40:08;93043.00;;;2.60
10598;BMP180;5346;48.766;8.674;2023-04-15T04:42:36;93039.00;;;2.90
10598;BMP180;5346;48.766;8.674;2023-04-15T04:45:11;93045.00;;;2.70
10598;BMP180;5346;48.766;8.674;2023-04-15T04:47:38;93035.00;;;2.80
10598;BMP180;5346;48.766;8.674;2023-04-15T04:50:12;93050.00;;;2.80
10598;BMP180;5346;48.766;8.674;2023-04-15T04:52:39;93041.00;;;2.80
10598;BMP180;5346;48.766;8.674;2023-04-15T04:55:13;93025.00;;;2.90
10598;BMP180;5346;48.766;8.674;2023-04-15T04:57:40;93020.00;;;2.80
10598;BMP180;5346;48.766;8.674;2023-04-15T05:00:14;93027.00;;;2.90
10598;BMP180;5346;48.766;8.674;2023-04-15T05:02:55;93047.00;;;2.90
10598;BMP180;5346;48.766;8.674;2023-04-15T05:05:29;93027.00;;;3.20
10598;BMP180;5346;48.766;8.674;2023-04-15T05:07:56;93041.00;;;3.20
10598;BMP180;5346;48.766;8.674;2023-04-15T05:10:30;93051.00;;;3.20
10598;BMP180;5346;48.766;8.674;2023-04-15T05:12:57;93044.00;;;3.50
10598;BMP180;5346;48.766;8.674;2023-04-15T05:15:31;93046.00;;;3.90
10598;BMP180;5346;48.766;8.674;2023-04-15T05:18:05;93040.00;;;4.10
10598;BMP180;5346;48.766;8.674;2023-04-15T05:20:32;93038.00;;;4.00
10598;BMP180;5346;48.766;8.674;2023-04-15T05:23:06;93052.00;;;4.10
10598;BMP180;5346;48.766;8.674;2023-04-15T05:25:42;93058.00;;;4.30
10598;BMP180;5346;48.766;8.674;2023-04-15T05:28:17;93054.00;;;4.40
10598;BMP180;5346;48.766;8.674;2023-04-15T05:30:51;93030.00;;;4.80
10598;BMP180;5346;48.766;8.674;2023-04-15T05:33:25;93050.00;;;4.80
10598;BMP180;5346;48.766;8.674;2023-04-15T05:36:00;93041.00;;;4.90
10598;BMP180;5346;48.766;8.674;2023-04-15T05:38:27;93054.00;;;4.90
10598;BMP180;5346;48.766;8.674;2023-04-15T05:41:01;93059.00;;;5.30
10598;BMP180;5346;48.766;8.674;2023-04-15T05:43:28;93054.00;;;5.40
10598;BMP180;5346;48.766;8.674;2023-04-15T05:46:03;93056.00;;;5.30
10598;BMP180;5346;48.766;8.674;2023-04-15T05:48:37;93047.00;;;5.30
10598;BMP180;5346;48.766;8.674;2023-04-15T05:51:11;93055.00;;;5.40
10598;BMP180;5346;48.766;8.674;2023-04-15T05:53:45;93045.00;;;5.60
10598;BMP180;5346;48.766;8.674;2023-04-15T05:56:19;93059.00;;;5.70
10598;BMP180;5346;48.766;8.674;2023-04-15T05:58:53;93037.00;;;5.80
10598;BMP180;5346;48.766;8.674;2023-04-15T06:01:27;93048.00;;;5.90
10598;BMP180;5346;48.766;8.674;2023-04-15T06:04:07;93067.00;;;6.50
10598;BMP180;5346;48.766;8.674;2023-04-15T06:06:46;93045.00;;;6.80
10598;BMP180;5346;48.766;8.674;2023-04-15T06:09:15;93039.00;;;7.10
10598;BMP180;5346;48.766;8.674;2023-04-15T06:11:51;93064.00;;;7.30
10598;BMP180;5346;48.766;8.674;2023-04-15T06:14:25;93059.00;;;7.30
10598;BMP180;5346;48.766;8.674;2023-04-15T06:16:59;93075.00;;;7.10
10598;BMP180;5346;48.766;8.674;2023-04-15T06:19:34;93061.00;;;6.90
10598;BMP180;5346;48.766;8.674;2023-04-15T06:22:09;93053.00;;;7.40
10598;BMP180;5346;48.766;8.674;2023-04-15T06:24:43;93073.00;;;7.80
10598;BMP180;5346;48.766;8.674;2023-04-15T06:27:18;93079.00;;;8.30
10598;BMP180;5346;48.766;8.674;2023-04-15T06:29:45;93055.00;;;8.90
10598;BMP180;5346;48.766;8.674;2023-04-15T06:32:12;93058.00;;;9.40
10598;BMP180;5346;48.766;8.674;2023-04-15T06:34:46;93073.00;;;10.20
10598;BMP180;5346;48.766;8.674;2023-04-15T06:37:13;93065.00;;;10.50
10598;BMP180;5346;48.766;8.674;2023-04-15T06:39:49;93049.00;;;11.00
10598;BMP180;5346;48.766;8.674;2023-04-15T06:42:17;93054.00;;;11.20
10598;BMP180;5346;48.766;8.674;2023-04-15T06:44:52;93058.00;;;11.00
10598;BMP180;5346;48.766;8.674;2023-04-15T06:47:19;93075.00;;;11.50
10598;BMP180;5346;48.766;8.674;2023-04-15T06:49:47;93056.00;;;10.70
10598;BMP180;5346;48.766;8.674;2023-04-15T06:52:27;93074.00;;;11.00
10598;BMP180;5346;48.766;8.674;2023-04-15T06:54:55;93051.00;;;11.20
10598;BMP180;5346;48.766;8.674;2023-04-15T06:57:30;93066.00;;;11.20
10598;BMP180;5346;48.766;8.674;2023-04-15T07:00:01;93073.00;;;11.70
10598;BMP180;5346;48.766;8.674;2023-04-15T07:02:37;93073.00;;;12.40
10598;BMP180;5346;48.766;8.674;2023-04-15T07:05:17;93068.00;;;12.30
10598;BMP180;5346;48.766;8.674;2023-04-15T07:07:51;93059.00;;;12.40
10598;BMP180;5346;48.766;8.674;2023-04-15T07:10:19;93064.00;;;12.30
10598;BMP180;5346;48.766;8.674;2023-04-15T07:12:53;93077.00;;;12.20
10598;BMP180;5346;48.766;8.674;2023-04-15T07:15:21;93074.00;;;12.20
10598;BMP180;5346;48.766;8.674;2023-04-15T07:17:55;93071.00;;;12.00
10598;BMP180;5346;48.766;8.674;2023-04-15T07:20:22;93057.00;;;12.00
10598;BMP180;5346;48.766;8.674;2023-04-15T07:22:56;93068.00;;;12.00
10598;BMP180;5346;48.766;8.674;2023-04-15T07:25:24;93076.00;;;11.80
10598;BMP180;5346;48.766;8.674;2023-04-15T07:28:00;93065.00;;;11.80
10598;BMP180;5346;48.766;8.674;2023-04-15T07:30:28;93083.00;;;12.10
10598;BMP180;5346;48.766;8.674;2023-04-15T07:33:03;93071.00;;;11.60
10598;BMP180;5346;48.766;8.674;2023-04-15T07:35:31;93057.00;;;11.70
10598;BMP180;5346;48.766;8.674;2023-04-15T07:37:59;93079.00;;;12.10
10598;BMP180;5346;48.766;8.674;2023-04-15T07:40:33;93075.00;;;12.40
10598;BMP180;5346;48.766;8.674;2023-04-15T07:43:01;93068.00;;;12.10
10598;BMP180;5346;48.766;8.674;2023-04-15T07:45:36;93093.00;;;12.60
10598;BMP180;5346;48.766;8.674;2023-04-15T07:48:04;93087.00;;;12.70
10598;BMP180;5346;48.766;8.674;2023-04-15T07:50:39;93092.00;;;13.00
10598;BMP180;5346;48.766;8.674;2023-04-15T07:53:14;93074.00;;;13.10
10598;BMP180;5346;48.766;8.674;2023-04-15T07:55:48;93089.00;;;13.00
10598;BMP180;5346;48.766;8.674;2023-04-15T07:58:16;93081.00;;;13.30
10598;BMP180;5346;48.766;8.674;2023-04-15T08:00:56;93086.00;;;13.10
10598;BMP180;5346;48.766;8.674;2023-04-15T08:03:37;93078.00;;;13.50
10598;BMP180;5346;48.766;8.674;2023-04-15T08:06:11;93075.00;;;13.70
10598;BMP180;5346;48.766;8.674;2023-04-15T08:08:39;93074.00;;;14.20
10598;BMP180;5346;48.766;8.674;2023-04-15T08:11:12;93080.00;;;14.90
10598;BMP180;5346;48.766;8.674;2023-04-15T08:13:42;93064.00;;;15.10
10598;BMP180;5346;48.766;8.674;2023-04-15T08:16:19;93084.00;;;15.30
10598;BMP180;5346;48.766;8.674;2023-04-15T08:18:49;93084.00;;;15.00
10598;BMP180;5346;48.766;8.674;2023-04-15T08:21:24;93082.00;;;14.30
10598;BMP180;5346;48.766;8.674;2023-04-15T08:23:52;93081.00;;;13.70
10598;BMP180;5346;48.766;8.674;2023-04-15T08:26:27;93080.00;;;14.40
10598;BMP180;5346;48.766;8.674;2023-04-15T08:28:55;93083.00;;;14.20
10598;BMP180;5346;48.766;8.674;2023-04-15T08:31:22;93090.00;;;14.50
10598;BMP180;5346;48.766;8.674;2023-04-15T08:33:56;93093.00;;;14.90
10598;BMP180;5346;48.766;8.674;2023-04-15T08:36:25;93099.00;;;14.10
10598;BMP180;5346;48.766;8.674;2023-04-15T08:39:00;93083.00;;;14.50
10598;BMP180;5346;48.766;8.674;2023-04-15T08:42:02;93109.00;;;13.90
10598;BMP180;5346;48.766;8.674;2023-04-15T08:44:36;93109.00;;;14.30
10598;BMP180;5346;48.766;8.674;2023-04-15T08:47:12;93116.00;;;14.20
10598;BMP180;5346;48.766;8.674;2023-04-15T08:49:42;93110.00;;;13.70
10598;BMP180;5346;48.766;8.674;2023-04-15T08:52:16;93112.00;;;13.90
10598;BMP180;5346;48.766;8.674;2023-04-15T08:54:44;93105.00;;;14.00
10598;BMP180;5346;48.766;8.674;2023-04-15T08:57:18;93119.00;;;14.30
10598;BMP180;5346;48.766;8.674;2023-04-15T08:59:47;93106.00;;;14.40
10598;BMP180;5346;48.766;8.674;2023-04-15T09:02:27;93103.00;;;14.00
10598;BMP180;5346;48.766;8.674;2023-04-15T09:04:55;93117.00;;;14.30
10598;BMP180;5346;48.766;8.674;2023-04-15T09:07:32;93119.00;;;13.40
10598;BMP180;5346;48.766;8.674;2023-04-15T09:10:07;93124.00;;;14.10
10598;BMP180;5346;48.766;8.674;2023-04-15T09:12:37;93126.00;;;14.10
10598;BMP180;5346;48.766;8.674;2023-04-15T09:15:10;93137.00;;;14.20
10598;BMP180;5346;48.766;8.674;2023-04-15T09:17:45;93136.00;;;13.70
10598;BMP180;5346;48.766;8.674;2023-04-15T09:20:15;93139.00;;;13.80
10598;BMP180;5346;48.766;8.674;2023-04-15T09:22:51;93143.00;;;14.50
10598;BMP180;5346;48.766;8.674;2023-04-15T09:28:03;93140.00;;;14.10
10598;BMP180;5346;48.766;8.674;2023-04-15T09:30:30;93130.00;;;13.40
10598;BMP180;5346;48.766;8.674;2023-04-15T09:33:05;93131.00;;;13.70
10598;BMP180;5346;48.766;8.674;2023-04-15T09:35:36;93135.00;;;13.50
10598;BMP180;5346;48.766;8.674;2023-04-15T09:38:10;93135.00;;;14.00
10598;BMP180;5346;48.766;8.674;2023-04-15T09:40:40;93134.00;;;14.70
10598;BMP180;5346;48.766;8.674;2023-04-15T09:43:14;93125.00;;;15.70
10598;BMP180;5346;48.766;8.674;2023-04-15T09:45:52;93146.00;;;15.00
10598;BMP180;5346;48.766;8.674;2023-04-15T09:48:26;93124.00;;;15.50
10598;BMP180;5346;48.766;8.674;2023-04-15T09:50:58;93140.00;;;15.90
10598;BMP180;5346;48.766;8.674;2023-04-15T09:53:35;93154.00;;;15.70
10598;BMP180;5346;48.766;8.674;2023-04-15T09:56:04;93137.00;;;14.70
10598;BMP180;5346;48.766;8.674;2023-04-15T09:58:40;93152.00;;;15.00
10598;BMP180;5346;48.766;8.674;2023-04-15T10:01:15;93161.00;;;13.00
10598;BMP180;5346;48.766;8.674;2023-04-15T10:03:50;93159.00;;;13.00
10598;BMP180;5346;48.766;8.674;2023-04-15T10:06:34;93157.00;;;14.40
10598;BMP180;5346;48.766;8.674;2023-04-15T10:09:09;93153.00;;;15.00
10598;BMP180;5346;48.766;8.674;2023-04-15T10:11:44;93151.00;;;15.50
10598;BMP180;5346;48.766;8.674;2023-04-15T10:14:13;93176.00;;;14.60
10598;BMP180;5346;48.766;8.674;2023-04-15T10:16:49;93166.00;;;14.50
10598;BMP180;5346;48.766;8.674;2023-04-15T10:19:30;93163.00;;;15.30
10598;BMP180;5346;48.766;8.674;2023-04-15T10:21:58;93164.00;;;14.80
10598;BMP180;5346;48.766;8.674;2023-04-15T10:24:33;93171.00;;;15.10
10598;BMP180;5346;48.766;8.674;2023-04-15T10:27:08;93178.00;;;14.70
10598;BMP180;5346;48.766;8.674;2023-04-15T10:29:36;93181.00;;;12.60
10598;BMP180;5346;48.766;8.674;2023-04-15T10:32:10;93176.00;;;12.50
10598;BMP180;5346;48.766;8.674;2023-04-15T10:34:48;93161.00;;;13.70
10598;BMP180;5346;48.766;8.674;2023-04-15T10:37:33;93178.00;;;14.70
10598;BMP180;5346;48.766;8.674;2023-04-15T10:43:02;93198.00;;;13.90
10598;BMP180;5346;48.766;8.674;2023-04-15T10:45:37;93198.00;;;13.80
10598;BMP180;5346;48.766;8.674;2023-04-15T10:48:15;93199.00;;;13.60
10598;BMP180;5346;48.766;8.674;2023-04-15T10:50:56;93184.00;;;13.70
10598;BMP180;5346;48.766;8.674;2023-04-15T10:53:30;93190.00;;;13.60
10598;BMP180;5346;48.766;8.674;2023-04-15T10:56:05;93203.00;;;13.50
10598;BMP180;5346;48.766;8.674;2023-04-15T10:58:43;93201.00;;;14.40
10598;BMP180;5346;48.766;8.674;2023-04-15T11:01:12;93213.00;;;14.00
10598;BMP180;5346;48.766;8.674;2023-04-15T11:03:54;93219.00;;;13.40
10598;BMP180;5346;48.766;8.674;2023-04-15T11:06:43;93206.00;;;13.00
10598;BMP180;5346;48.766;8.674;2023-04-15T11:09:32;93208.00;;;12.90
10598;BMP180;5346;48.766;8.674;2023-04-15T11:12:09;93209.00;;;13.30
10598;BMP180;5346;48.766;8.674;2023-04-15T11:14:45;93221.00;;;14.00
10598;BMP180;5346;48.766;8.674;2023-04-15T11:17:27;93206.00;;;13.90
10598;BMP180;5346;48.766;8.674;2023-04-15T11:20:06;93222.00;;;12.60
10598;BMP180;5346;48.766;8.674;2023-04-15T11:22:51;93220.00;;;13.60
10598;BMP180;5346;48.766;8.674;2023-04-15T11:25:40;93202.00;;;14.80
10598;BMP180;5346;48.766;8.674;2023-04-15T11:28:15;93212.00;;;15.30
10598;BMP180;5346;48.766;8.674;2023-04-15T11:30:49;93225.00;;;14.10
10598;BMP180;5346;48.766;8.674;2023-04-15T11:33:24;93227.00;;;13.30
10598;BMP180;5346;48.766;8.674;2023-04-15T11:35:52;93235.00;;;13.40
10598;BMP180;5346;48.766;8.674;2023-04-15T11:38:29;93257.00;;;12.30
10598;BMP180;5346;48.766;8.674;2023-04-15T11:41:04;93251.00;;;12.20
10598;BMP180;5346;48.766;8.674;2023-04-15T11:43:32;93246.00;;;12.50
10598;BMP180;5346;48.766;8.674;2023-04-15T11:46:07;93214.00;;;13.40
10598;BMP180;5346;48.766;8.674;2023-04-15T11:48:35;93234.00;;;14.40
10598;BMP180;5346;48.766;8.674;2023-04-15T11:51:12;93243.00;;;13.70
10598;BMP180;5346;48.766;8.674;2023-04-15T11:53:47;93261.00;;;13.20
10598;BMP180;5346;48.766;8.674;2023-04-15T11:56:25;93260.00;;;11.90
10598;BMP180;5346;48.766;8.674;2023-04-15T11:58:57;93265.00;;;13.10
10598;BMP180;5346;48.766;8.674;2023-04-15T12:01:34;93240.00;;;12.70
10598;BMP180;5346;48.766;8.674;2023-04-15T12:04:17;93237.00;;;14.60
10598;BMP180;5346;48.766;8.674;2023-04-15T12:07:04;93261.00;;;15.00
10598;BMP180;5346;48.766;8.674;2023-04-15T12:09:37;93256.00;;;14.50
10598;BMP180;5346;48.766;8.674;2023-04-15T12:12:12;93263.00;;;14.50
10598;BMP180;5346;48.766;8.674;2023-04-15T12:14:40;93249.00;;;15.20
10598;BMP180;5346;48.766;8.674;2023-04-15T12:17:15;93237.00;;;15.40
10598;BMP180;5346;48.766;8.674;2023-04-15T12:19:43;93264.00;;;16.10
10598;BMP180;5346;48.766;8.674;2023-04-15T12:22:22;93271.00;;;15.20
10598;BMP180;5346;48.766;8.674;2023-04-15T12:24:54;93294.00;;;12.20
10598;BMP180;5346;48.766;8.674;2023-04-15T12:27:30;93302.00;;;12.70
10598;BMP180;5346;48.766;8.674;2023-04-15T12:30:05;93307.00;;;12.80
10598;BMP180;5346;48.766;8.674;2023-04-15T12:32:38;93304.00;;;11.70
10598;BMP180;5346;48.766;8.674;2023-04-15T12:35:13;93294.00;;;12.00
10598;BMP180;5346;48.766;8.674;2023-04-15T12:37:44;93288.00;;;13.00
10598;BMP180;5346;48.766;8.674;2023-04-15T12:40:19;93276.00;;;14.70
10598;BMP180;5346;48.766;8.674;2023-04-15T12:42:46;93267.00;;;17.40
10598;BMP180;5346;48.766;8.674;2023-04-15T12:45:20;93303.00;;;16.60
10598;BMP180;5346;48.766;8.674;2023-04-15T12:47:48;93317.00;;;14.60
10598;BMP180;5346;48.766;8.674;2023-04-15T12:50:22;93326.00;;;13.60
10598;BMP180;5346;48.766;8.674;2023-04-15T12:52:56;93330.00;;;13.30
10598;BMP180;5346;48.766;8.674;2023-04-15T12:55:30;93305.00;;;13.60
10598;BMP180;5346;48.766;8.674;2023-04-15T12:58:04;93328.00;;;14.10
10598;BMP180;5346;48.766;8.674;2023-04-15T13:00:38;93315.00;;;14.70
10598;BMP180;5346;48.766;8.674;2023-04-15T13:03:14;93318.00;;;14.20
10598;BMP180;5346;48.766;8.674;2023-04-15T13:05:55;93331.00;;;13.90
10598;BMP180;5346;48.766;8.674;2023-04-15T13:08:31;93340.00;;;13.00
10598;BMP180;5346;48.766;8.674;2023-04-15T13:11:13;93342.00;;;13.40
10598;BMP180;5346;48.766;8.674;2023-04-15T13:13:41;93336.00;;;13.30
10598;BMP180;5346;48.766;8.674;2023-04-15T13:16:15;93338.00;;;12.90
10598;BMP180;5346;48.766;8.674;2023-04-15T13:18:51;93332.00;;;13.60
10598;BMP180;5346;48.766;8.674;2023-04-15T13:21:25;93340.00;;;12.80
10598;BMP180;5346;48.766;8.674;2023-04-15T13:23:59;93345.00;;;12.20
10598;BMP180;5346;48.766;8.674;2023-04-15T13:26:33;93356.00;;;12.60
10598;BMP180;5346;48.766;8.674;2023-04-15T13:29:07;93340.00;;;11.80
10598;BMP180;5346;48.766;8.674;2023-04-15T13:31:34;93349.00;;;11.20
10598;BMP180;5346;48.766;8.674;2023-04-15T13:34:07;93325.00;;;11.40
10598;BMP180;5346;48.766;8.674;2023-04-15T13:36:41;93365.00;;;11.50
10598;BMP180;5346;48.766;8.674;2023-04-15T13:39:15;93364.00;;;11.90
10598;BMP180;5346;48.766;8.674;2023-04-15T13:41:50;93364.00;;;11.80
10598;BMP180;5346;48.766;8.674;2023-04-15T13:44:18;93370.00;;;11.40
10598;BMP180;5346;48.766;8.674;2023-04-15T13:46:54;93341.00;;;11.80
10598;BMP180;5346;48.766;8.674;2023-04-15T13:49:28;93377.00;;;11.60
10598;BMP180;5346;48.766;8.674;2023-04-15T13:52:02;93353.00;;;11.40
10598;BMP180;5346;48.766;8.674;2023-04-15T13:54:36;93367.00;;;11.30
10598;BMP180;5346;48.766;8.674;2023-04-15T13:57:10;93390.00;;;10.70
10598;BMP180;5346;48.766;8.674;2023-04-15T13:59:38;93387.00;;;10.50
10598;BMP180;5346;48.766;8.674;2023-04-15T14:02:20;93390.00;;;10.60
10598;BMP180;5346;48.766;8.674;2023-04-15T14:04:55;93389.00;;;10.50
10598;BMP180;5346;48.766;8.674;2023-04-15T14:07:36;93377.00;;;10.80
10598;BMP180;5346;48.766;8.674;2023-04-15T14:10:10;93384.00;;;10.40
10598;BMP180;5346;48.766;8.674;2023-04-15T14:12:44;93398.00;;;10.50
10598;BMP180;5346;48.766;8.674;2023-04-15T14:15:18;93389.00;;;10.70
10598;BMP180;5346;48.766;8.674;2023-04-15T14:17:52;93402.00;;;10.70
10598;BMP180;5346;48.766;8.674;2023-04-15T14:20:32;93400.00;;;10.90
10598;BMP180;5346;48.766;8.674;2023-04-15T14:23:01;93413.00;;;10.80
10598;BMP180;5346;48.766;8.674;2023-04-15T14:25:35;93425.00;;;10.00
10598;BMP180;5346;48.766;8.674;2023-04-15T14:28:05;93413.00;;;10.50
10598;BMP180;5346;48.766;8.674;2023-04-15T14:30:38;93430.00;;;10.60
10598;BMP180;5346;48.766;8.674;2023-04-15T14:33:05;93438.00;;;10.50
10598;BMP180;5346;48.766;8.674;2023-04-15T14:35:39;93439.00;;;9.70
10598;BMP180;5346;48.766;8.674;2023-04-15T14:38:14;93455.00;;;9.70
10598;BMP180;5346;48.766;8.674;2023-04-15T14:40:49;93447.00;;;9.80
10598;BMP180;5346;48.766;8.674;2023-04-15T14:43:23;93442.00;;;9.60
10598;BMP180;5346;48.766;8.674;2023-04-15T14:45:57;93465.00;;;9.30
10598;BMP180;5346;48.766;8.674;2023-04-15T14:48:25;93463.00;;;9.70
10598;BMP180;5346;48.766;8.674;2023-04-15T14:50:58;93447.00;;;9.90
10598;BMP180;5346;48.766;8.674;2023-04-15T14:53:26;93453.00;;;9.70
10598;BMP180;5346;48.766;8.674;2023-04-15T14:56:00;93442.00;;;9.20
10598;BMP180;5346;48.766;8.674;2023-04-15T14:58:35;93447.00;;;9.40
10598;BMP180;5346;48.766;8.674;2023-04-15T15:01:03;93462.00;;;9.80
10598;BMP180;5346;48.766;8.674;2023-04-15T15:03:38;93467.00;;;10.20
10598;BMP180;5346;48.766;8.674;2023-04-15T15:06:20;93473.00;;;10.40